Home > Products > Valid Products > TAF

000
FTUS42 KGSP 181700
TAFAVL
TAF
KAVL 181735Z 1818/1918 00000KT P6SM SCT045 BKN250
     FM182300 32003KT P6SM BKN045
     FM190400 00000KT 5SM BR BKN040
     FM190700 00000KT 3SM BR BKN025
     FM191000 00000KT 2SM BR OVC007
     FM191400 00000KT P6SM BKN015
     FM191600 18003KT P6SM BKN040=



000
FTUS42 KGSP 181700
TAFGSP
TAF
KGSP 181735Z 1818/1918 00000KT P6SM SCT015 BKN040
      TEMPO 1818/1819 BKN015
     FM182100 05004KT P6SM SCT040 BKN250
     FM190100 00000KT P6SM BKN040
     FM190900 04003KT 4SM BR BKN020
     FM191100 05003KT 4SM BR OVC007
     FM191400 05005KT P6SM BKN016
     FM191600 05007KT P6SM BKN040=



000
FTUS42 KGSP 181700
TAFAVL
TAF
KAVL 181735Z 1818/1918 00000KT P6SM SCT045 BKN250
     FM182300 32003KT P6SM BKN045
     FM190400 00000KT 5SM BR BKN040
     FM190700 00000KT 3SM BR BKN025
     FM191000 00000KT 2SM BR OVC007
     FM191400 00000KT P6SM BKN015
     FM191600 18003KT P6SM BKN040=



000
FTUS42 KGSP 181700
TAFCLT
TAF
KCLT 181735Z 1818/1918 00000KT P6SM BKN035
     FM182100 10004KT P6SM SCT035 BKN250
     FM190100 11004KT P6SM BKN040
     FM190700 07004KT P6SM BKN030
     FM191000 05004KT 4SM BR OVC007
     FM191400 07007KT P6SM BKN017
     FM191700 07008KT P6SM BKN040=



000
FTUS42 KGSP 181700
TAFCLT
TAF
KCLT 181735Z 1818/1918 00000KT P6SM BKN035
     FM182100 10004KT P6SM SCT035 BKN250
     FM190100 11004KT P6SM BKN040
     FM190700 07004KT P6SM BKN030
     FM191000 05004KT 4SM BR OVC007
     FM191400 07007KT P6SM BKN017
     FM191700 07008KT P6SM BKN040=



000
FTUS42 KGSP 181500 AAA
TAFCLT
TAF AMD
KCLT 181509Z 1815/1912 05004KT P6SM OVC012
      TEMPO 1815/1816 OVC008
     FM181800 07004KT P6SM BKN025
     FM182000 10004KT P6SM BKN040
     FM190000 11004KT P6SM BKN045
     FM191100 05004KT 6SM BR BKN017=



000
FTUS42 KGSP 181500 AAA
TAFCLT
TAF AMD
KCLT 181509Z 1815/1912 05004KT P6SM OVC012
      TEMPO 1815/1816 OVC008
     FM181800 07004KT P6SM BKN025
     FM182000 10004KT P6SM BKN040
     FM190000 11004KT P6SM BKN045
     FM191100 05004KT 6SM BR BKN017=



000
FTUS42 KGSP 181500 AAB
TAFGSP
TAF AMD
KGSP 181509Z 1815/1912 03006KT P6SM OVC007
      TEMPO 1815/1817 SCT007 OVC012
     FM181700 05005KT P6SM OVC012
     FM181900 06004KT P6SM BKN025
     FM182100 06003KT P6SM BKN045
     FM191100 04003KT P6SM BKN016=



000
FTUS42 KGSP 181300 AAA
TAFGSP
TAF AMD
KGSP 181351Z 1814/1912 03006KT P6SM SCT006 BKN050
      TEMPO 1814/1816 6SM BR BKN006 OVC050
     FM181600 05005KT P6SM BKN050
     FM181800 10003KT P6SM SCT050
     FM191100 04003KT P6SM BKN016=



000
FTUS42 KGSP 181300 AAB
TAFGSP
TAF AMD
KGSP 181303Z 1813/1912 02005KT P6SM SCT025 BKN045
      TEMPO 1813/1815 BKN025 OVC045
     FM181500 05005KT P6SM BKN050
     FM181800 10003KT P6SM SCT040
     FM191100 04003KT P6SM BKN016=



000
FTUS42 KGSP 181300 AAA
TAFAVL
TAF AMD
KAVL 181301Z 1813/1912 36006KT P6SM BKN040
     FM181800 00000KT P6SM SCT045
     FM190700 00000KT 5SM BR SCT010
     FM190800 00000KT 4SM BR BKN005=



000
FTUS42 KGSP 181300 AAA
TAFAVL
TAF AMD
KAVL 181301Z 1813/1912 36006KT P6SM BKN040
     FM181800 00000KT P6SM SCT045
     FM190700 00000KT 5SM BR SCT010
     FM190800 00000KT 4SM BR BKN005=



000
FTUS42 KGSP 181200 AAA
TAFGSP
TAF AMD
KGSP 181217Z 1812/1912 02004KT P6SM SCT015 BKN045
      TEMPO 1812/1815 BKN015 OVC045
     FM181500 05005KT P6SM BKN050
     FM181800 10003KT P6SM SCT040
     FM191100 04003KT P6SM BKN016=



000
FTUS42 KGSP 181100
TAFCLT
TAF
KCLT 181140Z 1812/1912 02003KT 5SM BR OVC006
      TEMPO 1812/1814 2SM BR OVC004
     FM181600 05004KT P6SM BKN017
     FM181800 05004KT P6SM BKN040
     FM190000 11004KT P6SM BKN045
     FM191100 05004KT 6SM BR BKN017=



000
FTUS42 KGSP 181100
TAFGSP
TAF
KGSP 181140Z 1812/1912 02004KT P6SM FEW015 BKN045
     FM181500 05005KT P6SM BKN050
     FM181800 10003KT P6SM SCT040
     FM191100 04003KT P6SM BKN016=



000
FTUS42 KGSP 181100
TAFCLT
TAF
KCLT 181140Z 1812/1912 02003KT 5SM BR OVC006
      TEMPO 1812/1814 2SM BR OVC004
     FM181600 05004KT P6SM BKN017
     FM181800 05004KT P6SM BKN040
     FM190000 11004KT P6SM BKN045
     FM191100 05004KT 6SM BR BKN017=



000
FTUS42 KGSP 181100
TAFAVL
TAF
KAVL 181140Z 1812/1912 35007KT 5SM BR SCT004 BKN035
      TEMPO 1812/1814 2SM BR OVC004
     FM181400 34006KT P6SM BKN030
     FM181800 00000KT P6SM SCT045
     FM190700 00000KT 5SM BR SCT010
     FM190800 00000KT 4SM BR BKN005=



000
FTUS42 KGSP 181100
TAFAVL
TAF
KAVL 181140Z 1812/1912 35007KT 5SM BR SCT004 BKN035
      TEMPO 1812/1814 2SM BR OVC004
     FM181400 34006KT P6SM BKN030
     FM181800 00000KT P6SM SCT045
     FM190700 00000KT 5SM BR SCT010
     FM190800 00000KT 4SM BR BKN005=



000
FTUS42 KGSP 180900 AAA
TAFCLT
TAF AMD
KCLT 180914Z 1809/1906 02003KT 3SM BR BKN008 OVC014
      TEMPO 1810/1812 2SM BR FEW004 SCT008 BKN014
     FM181400 05004KT P6SM BKN022
     FM181600 09003KT P6SM BKN040=



000
FTUS42 KGSP 180900 AAA
TAFCLT
TAF AMD
KCLT 180914Z 1809/1906 02003KT 3SM BR BKN008 OVC014
      TEMPO 1810/1812 2SM BR FEW004 SCT008 BKN014
     FM181400 05004KT P6SM BKN022
     FM181600 09003KT P6SM BKN040=



000
FTUS42 KGSP 180500
TAFAVL
TAF
KAVL 180540Z 1806/1906 00000KT P6SM SCT003 BKN007 BKN250
      TEMPO 1806/1808 BKN002 OVC007
     FM180800 30003KT 5SM BR SCT003 BKN120
      TEMPO 1808/1810 3SM BR BKN005 BKN250
     FM181000 33004KT 2SM BR OVC006
     FM181400 34003KT P6SM BKN060
     FM181800 00000KT P6SM SCT045=



000
FTUS42 KGSP 180500
TAFAVL
TAF
KAVL 180540Z 1806/1906 00000KT P6SM SCT003 BKN007 BKN250
      TEMPO 1806/1808 BKN002 OVC007
     FM180800 30003KT 5SM BR SCT003 BKN120
      TEMPO 1808/1810 3SM BR BKN005 BKN250
     FM181000 33004KT 2SM BR OVC006
     FM181400 34003KT P6SM BKN060
     FM181800 00000KT P6SM SCT045=



000
FTUS42 KGSP 180500
TAFCLT
TAF
KCLT 180540Z 1806/1906 36003KT 4SM BR SCT060 SCT250
      TEMPO 1808/1810 2SM BR SCT008 BKN050
     FM181000 01003KT 3SM BR BKN008
      TEMPO 1810/1812 2SM BR FEW004 BKN008
     FM181400 05004KT P6SM BKN022
     FM181600 09003KT P6SM BKN040=



000
FTUS42 KGSP 180500
TAFCLT
TAF
KCLT 180540Z 1806/1906 36003KT 4SM BR SCT060 SCT250
      TEMPO 1808/1810 2SM BR SCT008 BKN050
     FM181000 01003KT 3SM BR BKN008
      TEMPO 1810/1812 2SM BR FEW004 BKN008
     FM181400 05004KT P6SM BKN022
     FM181600 09003KT P6SM BKN040=



000
FTUS42 KGSP 180500
TAFGSP
TAF
KGSP 180540Z 1806/1906 00000KT 4SM BR BKN050
      TEMPO 1810/1812 2SM BR FEW005 SCT015
     FM181200 05003KT 5SM BR BKN015
     FM181600 06004KT P6SM BKN027
     FM181800 10003KT P6SM SCT040=



000
FTUS42 KGSP 180100 AAA
TAFAVL
TAF AMD
KAVL 180132Z 1802/1824 00000KT P6SM OVC021
      TEMPO 1802/1804 5SM BR SCT021
     FM180400 32003KT 3SM BR BKN012
     FM180900 32004KT 1SM BR BKN008
     FM181500 34004KT P6SM BKN060
     FM181800 36003KT P6SM SCT060=



000
FTUS42 KGSP 180100 AAA
TAFAVL
TAF AMD
KAVL 180132Z 1802/1824 00000KT P6SM OVC021
      TEMPO 1802/1804 5SM BR SCT021
     FM180400 32003KT 3SM BR BKN012
     FM180900 32004KT 1SM BR BKN008
     FM181500 34004KT P6SM BKN060
     FM181800 36003KT P6SM SCT060=



000
FTUS42 KGSP 172300
TAFAVL
TAF
KAVL 172333Z 1800/1824 18004KT P6SM SCT027 OVC035
     FM180300 33003KT 6SM BR SCT050
     FM180600 32003KT 3SM BR BKN021
     FM180700 32003KT 3SM BR BKN012
     FM181100 32004KT 2SM BR BKN012
     FM181500 34004KT P6SM BKN060
     FM181800 36003KT P6SM SCT060=



000
FTUS42 KGSP 172300
TAFGSP
TAF
KGSP 172333Z 1800/1824 08005KT P6SM SKC
     FM180200 03004KT P6SM BKN045
     FM180500 02003KT 5SM BR BKN015
     FM181000 36004KT 5SM BR BKN009
     FM181300 02004KT P6SM BKN013
     FM181500 04005KT P6SM BKN045
     FM181800 05004KT P6SM SCT050=



000
FTUS42 KGSP 172300
TAFCLT
TAF
KCLT 172333Z 1800/1824 35003KT P6SM FEW070
     FM180500 02004KT 5SM BR SCT012 BKN025
     FM180800 03003KT 4SM BR BKN007
     FM181400 04004KT P6SM BKN015
     FM181500 04003KT P6SM BKN025
     FM181700 06003KT P6SM BKN035=



000
FTUS42 KGSP 172300
TAFCLT
TAF
KCLT 172333Z 1800/1824 35003KT P6SM FEW070
     FM180500 02004KT 5SM BR SCT012 BKN025
     FM180800 03003KT 4SM BR BKN007
     FM181400 04004KT P6SM BKN015
     FM181500 04003KT P6SM BKN025
     FM181700 06003KT P6SM BKN035=



000
FTUS42 KGSP 172300
TAFAVL
TAF
KAVL 172333Z 1800/1824 18004KT P6SM SCT027 OVC035
     FM180300 33003KT 6SM BR SCT050
     FM180600 32003KT 3SM BR BKN021
     FM180700 32003KT 3SM BR BKN012
     FM181100 32004KT 2SM BR BKN012
     FM181500 34004KT P6SM BKN060
     FM181800 36003KT P6SM SCT060=



000
FTUS42 KGSP 172100 AAA
TAFGSP
TAF AMD
KGSP 172102Z 1721/1818 06007KT P6SM SCT024 BKN035
      TEMPO 1721/1723 BKN024
     FM172300 05005KT P6SM SCT035
     FM180600 02004KT 5SM BR BKN015
     FM181000 02004KT 3SM BR BKN007
     FM181400 03005KT P6SM BKN020=



000
FTUS42 KGSP 172100 AAA
TAFCLT
TAF AMD
KCLT 172101Z 1721/1818 34007KT P6SM BKN015 BKN035
      TEMPO 1721/1724 SCT015 BKN035
     FM180000 02005KT P6SM SCT035
     FM180500 04004KT 5SM BR BKN010
     FM180900 04003KT 2SM BR OVC005
     FM181400 04005KT P6SM BKN015=



000
FTUS42 KGSP 172100 AAA
TAFCLT
TAF AMD
KCLT 172101Z 1721/1818 34007KT P6SM BKN015 BKN035
      TEMPO 1721/1724 SCT015 BKN035
     FM180000 02005KT P6SM SCT035
     FM180500 04004KT 5SM BR BKN010
     FM180900 04003KT 2SM BR OVC005
     FM181400 04005KT P6SM BKN015=



000
FTUS42 KGSP 172000 AAA
TAFAVL
TAF AMD
KAVL 172048Z 1721/1818 15007KT P6SM SCT025 BKN040
      TEMPO 1721/1723 BKN025
     FM180400 35003KT 3SM BR BKN015
     FM180800 34004KT 2SM BR BKN008
     FM181000 34003KT 1SM BR BKN004
     FM181400 35005KT 6SM BR BKN020
     FM181600 36004KT P6SM BKN035=



000
FTUS42 KGSP 171700 CCA
TAFCLT
TAF COR
KCLT 171755Z 1718/1818 03006KT P6SM OVC010
     FM172000 02005KT P6SM BKN025
     FM180000 02005KT P6SM BKN035
     FM180500 04004KT 5SM BR BKN010
     FM180900 04003KT 2SM BR OVC005
     FM181400 04005KT P6SM BKN015=



000
FTUS42 KGSP 171700 CCA
TAFCLT
TAF COR
KCLT 171755Z 1718/1818 03006KT P6SM OVC010
     FM172000 02005KT P6SM BKN025
     FM180000 02005KT P6SM BKN035
     FM180500 04004KT 5SM BR BKN010
     FM180900 04003KT 2SM BR OVC005
     FM181400 04005KT P6SM BKN015=



000
FTUS42 KGSP 171700
TAFCLT
TAF
KCLT 171735Z 1718/1818 03006KT P6SM OVC007
      TEMPO 1718/1720 SCT007 BKN015
     FM172000 02005KT P6SM BKN025
     FM180000 02005KT P6SM BKN035
     FM180500 04004KT 5SM BR BKN010
     FM180900 04003KT 2SM BR OVC005
     FM181400 04005KT P6SM BKN015=



000
FTUS42 KGSP 171700
TAFAVL
TAF
KAVL 171735Z 1718/1818 14005KT P6SM BKN025
     FM180400 35003KT 3SM BR BKN015
     FM180800 34004KT 2SM BR BKN008
     FM181000 34003KT 1SM BR BKN004
     FM181400 35005KT 6SM BR BKN020
     FM181600 36004KT P6SM BKN035=



000
FTUS42 KGSP 171700
TAFCLT
TAF
KCLT 171735Z 1718/1818 03006KT P6SM OVC007
      TEMPO 1718/1720 SCT007 BKN015
     FM172000 02005KT P6SM BKN025
     FM180000 02005KT P6SM BKN035
     FM180500 04004KT 5SM BR BKN010
     FM180900 04003KT 2SM BR OVC005
     FM181400 04005KT P6SM BKN015=



000
FTUS42 KGSP 171700
TAFGSP
TAF
KGSP 171735Z 1718/1818 05006KT P6SM BKN025
     FM172100 04005KT P6SM BKN035
     FM180600 02004KT 5SM BR BKN015
     FM181000 02004KT 3SM BR BKN007
     FM181400 03005KT P6SM BKN020=



000
FTUS42 KGSP 171700
TAFAVL
TAF
KAVL 171735Z 1718/1818 14005KT P6SM BKN025
     FM180400 35003KT 3SM BR BKN015
     FM180800 34004KT 2SM BR BKN008
     FM181000 34003KT 1SM BR BKN004
     FM181400 35005KT 6SM BR BKN020
     FM181600 36004KT P6SM BKN035=



000
FTUS42 KGSP 171500 AAE
TAFCLT
TAF AMD
KCLT 171554Z 1716/1812 04007KT 6SM BR OVC006
      TEMPO 1717/1719 SCT008 BKN020
     FM171900 03006KT P6SM BKN035
     FM180200 04006KT P6SM BKN020=



000
FTUS42 KGSP 171500 AAE
TAFCLT
TAF AMD
KCLT 171554Z 1716/1812 04007KT 6SM BR OVC006
      TEMPO 1717/1719 SCT008 BKN020
     FM171900 03006KT P6SM BKN035
     FM180200 04006KT P6SM BKN020=



000
FTUS42 KGSP 171500 AAC
TAFAVL
TAF AMD
KAVL 171518Z 1715/1812 17006KT P6SM SCT020 BKN035
     FM172300 34005KT P6SM SCT035
     FM180300 00000KT P6SM FEW023
     FM180500 00000KT 3SM BR BKN012=



000
FTUS42 KGSP 171500 AAD
TAFCLT
TAF AMD
KCLT 171513Z 1715/1812 02008KT 6SM BR OVC005
     FM171600 03007KT P6SM BKN012
      TEMPO 1717/1719 SCT020 BKN030
     FM171900 02006KT P6SM BKN040
     FM180200 04006KT P6SM BKN020=



000
FTUS42 KGSP 171500 AAD
TAFCLT
TAF AMD
KCLT 171513Z 1715/1812 02008KT 6SM BR OVC005
     FM171600 03007KT P6SM BKN012
      TEMPO 1717/1719 SCT020 BKN030
     FM171900 02006KT P6SM BKN040
     FM180200 04006KT P6SM BKN020=



000
FTUS42 KGSP 171500 AAB
TAFAVL
TAF AMD
KAVL 171506Z 1715/1812 VRB04KT P6SM BKN025
     FM171800 34005KT P6SM BKN035
     FM180300 00000KT P6SM FEW023
     FM180500 00000KT 3SM BR BKN012=



000
FTUS42 KGSP 171500 AAB
TAFAVL
TAF AMD
KAVL 171506Z 1715/1812 VRB04KT P6SM BKN025
     FM171800 34005KT P6SM BKN035
     FM180300 00000KT P6SM FEW023
     FM180500 00000KT 3SM BR BKN012=



000
FTUS42 KGSP 171500 AAA
TAFGSP
TAF AMD
KGSP 171505Z 1715/1812 04007KT P6SM BKN015 OVC025
     FM171800 04005KT P6SM BKN035
     FM172100 03006KT P6SM SCT050=



000
FTUS42 KGSP 171400 AAC
TAFCLT
TAF AMD
KCLT 171457Z 1715/1812 02008KT 6SM BR OVC003
     FM171600 03007KT P6SM BKN012
      TEMPO 1717/1719 SCT020 BKN030
     FM171900 02006KT P6SM BKN040
     FM180200 04006KT P6SM BKN020=



000
FTUS42 KGSP 171400 AAC
TAFCLT
TAF AMD
KCLT 171457Z 1715/1812 02008KT 6SM BR OVC003
     FM171600 03007KT P6SM BKN012
      TEMPO 1717/1719 SCT020 BKN030
     FM171900 02006KT P6SM BKN040
     FM180200 04006KT P6SM BKN020=



000
FTUS42 KGSP 171400 AAA
TAFAVL
TAF AMD
KAVL 171402Z 1714/1812 34003KT P6SM OVC012
     FM171600 34004KT P6SM BKN025
     FM171800 34005KT P6SM BKN035
     FM180300 00000KT P6SM FEW023
     FM180500 00000KT 3SM BR BKN012=



000
FTUS42 KGSP 171400 AAA
TAFAVL
TAF AMD
KAVL 171402Z 1714/1812 34003KT P6SM OVC012
     FM171600 34004KT P6SM BKN025
     FM171800 34005KT P6SM BKN035
     FM180300 00000KT P6SM FEW023
     FM180500 00000KT 3SM BR BKN012=



000
FTUS42 KGSP 171300 AAB
TAFCLT
TAF AMD
KCLT 171336Z 1714/1812 02007KT 5SM BR OVC003
     FM171500 03006KT P6SM BKN012
      TEMPO 1716/1718 SCT020 BKN030
     FM171800 02005KT P6SM BKN040
     FM180200 04006KT P6SM BKN020=



000
FTUS42 KGSP 171300 AAB
TAFCLT
TAF AMD
KCLT 171336Z 1714/1812 02007KT 5SM BR OVC003
     FM171500 03006KT P6SM BKN012
      TEMPO 1716/1718 SCT020 BKN030
     FM171800 02005KT P6SM BKN040
     FM180200 04006KT P6SM BKN020=



000
FTUS42 KGSP 171200 AAA
TAFGSP
TAF AMD
KGSP 171253Z 1713/1812 04007KT P6SM OVC012
     FM171500 03005KT P6SM BKN025
     FM171800 04005KT P6SM BKN035
     FM172100 03006KT P6SM SCT050=



000
FTUS42 KGSP 171200 AAA
TAFCLT
TAF AMD
KCLT 171216Z 1712/1812 02007KT P6SM OVC005
      TEMPO 1713/1714 BKN008
     FM171400 03006KT P6SM BKN016
     FM171800 02005KT P6SM BKN060
     FM180200 04006KT P6SM BKN020=



000
FTUS42 KGSP 171200 AAA
TAFCLT
TAF AMD
KCLT 171216Z 1712/1812 02007KT P6SM OVC005
      TEMPO 1713/1714 BKN008
     FM171400 03006KT P6SM BKN016
     FM171800 02005KT P6SM BKN060
     FM180200 04006KT P6SM BKN020=



000
FTUS42 KGSP 171100
TAFAVL
TAF
KAVL 171127Z 1712/1812 34003KT P6SM SCT015 OVC025
      TEMPO 1712/1714 BKN015
     FM171600 34004KT P6SM BKN030
     FM171800 34005KT P6SM BKN040
     FM180300 00000KT P6SM FEW023
     FM180500 00000KT 3SM BR BKN012=



000
FTUS42 KGSP 171100
TAFGSP
TAF
KGSP 171127Z 1712/1812 03005KT P6SM SCT008 BKN050
      TEMPO 1712/1713 BKN008 OVC050
     FM171300 03005KT P6SM BKN020
     FM171800 04005KT P6SM BKN035
     FM172100 03006KT P6SM SCT050=



000
FTUS42 KGSP 171100
TAFCLT
TAF
KCLT 171127Z 1712/1812 02006KT 6SM BR BKN008
     FM171400 03006KT P6SM BKN016
     FM171800 02005KT P6SM BKN060
     FM180200 04006KT P6SM BKN020=



000
FTUS42 KGSP 171100
TAFAVL
TAF
KAVL 171127Z 1712/1812 34003KT P6SM SCT015 OVC025
      TEMPO 1712/1714 BKN015
     FM171600 34004KT P6SM BKN030
     FM171800 34005KT P6SM BKN040
     FM180300 00000KT P6SM FEW023
     FM180500 00000KT 3SM BR BKN012=



000
FTUS42 KGSP 171000 AAA
TAFAVL
TAF AMD
KAVL 171005Z 1710/1806 34003KT P6SM BKN017
      TEMPO 1711/1713 SCT008 OVC015
     FM171400 35003KT P6SM BKN035
     FM172100 00000KT P6SM SCT045=



000
FTUS42 KGSP 171000 AAA
TAFAVL
TAF AMD
KAVL 171005Z 1710/1806 34003KT P6SM BKN017
      TEMPO 1711/1713 SCT008 OVC015
     FM171400 35003KT P6SM BKN035
     FM172100 00000KT P6SM SCT045=



000
FTUS42 KGSP 171000 AAB
TAFCLT
TAF AMD
KCLT 171004Z 1710/1806 01004KT 4SM BR SCT008 BKN012
      TEMPO 1710/1713 BKN008 OVC012
     FM171600 02006KT P6SM BKN021
     FM172300 02006KT P6SM BKN017=



000
FTUS42 KGSP 171000 AAB
TAFCLT
TAF AMD
KCLT 171004Z 1710/1806 01004KT 4SM BR SCT008 BKN012
      TEMPO 1710/1713 BKN008 OVC012
     FM171600 02006KT P6SM BKN021
     FM172300 02006KT P6SM BKN017=



000
FTUS42 KGSP 170900 AAA
TAFCLT
TAF AMD
KCLT 170904Z 1709/1806 01005KT 6SM BR FEW003 BKN070
      TEMPO 1709/1711 5SM BR SCT002 BKN070
     FM171100 02005KT 5SM BR SCT008 BKN012
     FM171600 02006KT P6SM BKN021
     FM172300 02006KT P6SM BKN017=



000
FTUS42 KGSP 170900 AAA
TAFCLT
TAF AMD
KCLT 170904Z 1709/1806 01005KT 6SM BR FEW003 BKN070
      TEMPO 1709/1711 5SM BR SCT002 BKN070
     FM171100 02005KT 5SM BR SCT008 BKN012
     FM171600 02006KT P6SM BKN021
     FM172300 02006KT P6SM BKN017=



000
FTUS42 KGSP 170500 CCA
TAFAVL
TAF COR
KAVL 170552Z 1706/1806 33006KT P6SM SCT025
      TEMPO 1706/1708 FEW004 BKN025
     FM170800 34003KT 5SM BR SCT025 BKN060
     FM170900 34003KT 4SM BR SCT004
      TEMPO 1710/1712 2SM BR BKN004
     FM171400 35003KT P6SM BKN035
     FM172100 00000KT P6SM SCT045=



000
FTUS42 KGSP 170500 CCA
TAFCLT
TAF COR
KCLT 170549Z 1706/1806 01004KT P6SM SCT050 BKN080
      TEMPO 1706/1708 BKN005 BKN080
     FM170800 02005KT 5SM BR SCT008 BKN012
     FM171600 02006KT P6SM BKN021
     FM172300 02006KT P6SM BKN017=



000
FTUS42 KGSP 170500 CCA
TAFCLT
TAF COR
KCLT 170549Z 1706/1806 01004KT P6SM SCT050 BKN080
      TEMPO 1706/1708 BKN005 BKN080
     FM170800 02005KT 5SM BR SCT008 BKN012
     FM171600 02006KT P6SM BKN021
     FM172300 02006KT P6SM BKN017=



000
FTUS42 KGSP 170500
TAFAVL
TAF
KAVL 170540Z 1706/1806 33003KT P6SM SCT025
      TEMPO 1706/1708 FEW004 BKN025
     FM170800 34003KT 5SM BR SCT025 BKN060
     FM170900 34003KT 4SM BR SCT004
      TEMPO 1709/1712 2SM BR BKN004
     FM171400 35003KT P6SM BKN035
     FM172100 00000KT P6SM SCT045=



000
FTUS42 KGSP 170500
TAFCLT
TAF
KCLT 170540Z 1706/1806 01004KT P6SM SCT050 BKN080
     FM170900 02005KT 5SM BR SCT008 BKN012
     FM171600 02006KT P6SM BKN021
     FM172300 02006KT P6SM BKN017=



000
FTUS42 KGSP 170500
TAFAVL
TAF
KAVL 170540Z 1706/1806 33003KT P6SM SCT025
      TEMPO 1706/1708 FEW004 BKN025
     FM170800 34003KT 5SM BR SCT025 BKN060
     FM170900 34003KT 4SM BR SCT004
      TEMPO 1709/1712 2SM BR BKN004
     FM171400 35003KT P6SM BKN035
     FM172100 00000KT P6SM SCT045=



000
FTUS42 KGSP 170500
TAFGSP
TAF
KGSP 170540Z 1706/1806 02003KT P6SM FEW090
     FM170800 01004KT 5SM BR BKN050
     FM171100 02005KT 3SM BR SCT008 BKN015
     FM171400 02006KT P6SM BKN021
     FM172000 04006KT P6SM BKN040=



000
FTUS42 KGSP 170500
TAFCLT
TAF
KCLT 170540Z 1706/1806 01004KT P6SM SCT050 BKN080
     FM170900 02005KT 5SM BR SCT008 BKN012
     FM171600 02006KT P6SM BKN021
     FM172300 02006KT P6SM BKN017=



000
FTUS42 KGSP 170100 AAA
TAFCLT
TAF AMD
KCLT 170158Z 1702/1724 04003KT 6SM -TSRA BR BKN030CB
     FM170300 03004KT 4SM BR BKN015
     FM171300 03006KT P6SM BKN035
     FM172100 05006KT P6SM SCT035=



000
FTUS42 KGSP 170100 AAA
TAFCLT
TAF AMD
KCLT 170158Z 1702/1724 04003KT 6SM -TSRA BR BKN030CB
     FM170300 03004KT 4SM BR BKN015
     FM171300 03006KT P6SM BKN035
     FM172100 05006KT P6SM SCT035=



000
FTUS42 KGSP 162300
TAFAVL
TAF
KAVL 162333Z 1700/1724 34005KT P6SM VCTS BKN040CB
     FM170400 34005KT 4SM BR BKN015
      TEMPO 1708/1712 1/2SM FG BKN009
     FM171300 33004KT P6SM BKN030
     FM171600 33007KT P6SM SCT030=



000
FTUS42 KGSP 162300
TAFCLT
TAF
KCLT 162333Z 1700/1724 04003KT P6SM BKN045
      TEMPO 1700/1702 VRB10G20KT 4SM TSRA BKN030CB
     FM170600 03004KT 4SM BR BKN015
     FM171300 03006KT P6SM BKN035
     FM172100 05006KT P6SM SCT035=



000
FTUS42 KGSP 162300
TAFCLT
TAF
KCLT 162333Z 1700/1724 04003KT P6SM BKN045
      TEMPO 1700/1702 VRB10G20KT 4SM TSRA BKN030CB
     FM170600 03004KT 4SM BR BKN015
     FM171300 03006KT P6SM BKN035
     FM172100 05006KT P6SM SCT035=



000
FTUS42 KGSP 162300
TAFAVL
TAF
KAVL 162333Z 1700/1724 34005KT P6SM VCTS BKN040CB
     FM170400 34005KT 4SM BR BKN015
      TEMPO 1708/1712 1/2SM FG BKN009
     FM171300 33004KT P6SM BKN030
     FM171600 33007KT P6SM SCT030=



000
FTUS42 KGSP 162300
TAFGSP
TAF
KGSP 162333Z 1700/1724 36002KT 6SM BR VCTS BKN040CB
     FM170500 04002KT 5SM BR BKN020
     FM171300 03005KT P6SM BKN030
     FM172000 05005KT P6SM SCT040=



000
FTUS42 KGSP 162100 AAA
TAFCLT
TAF AMD
KCLT 162103Z 1621/1718 30004KT P6SM SCT045 SCT250
      TEMPO 1622/1702 VRB10G20KT 4SM TSRA BKN030CB
     FM170200 32003KT P6SM BKN035
     FM170500 01003KT 6SM BR BKN035
     FM170800 02003KT 4SM BR BKN016
     FM171600 03005KT P6SM BKN024=



000
FTUS42 KGSP 162100 AAA
TAFCLT
TAF AMD
KCLT 162103Z 1621/1718 30004KT P6SM SCT045 SCT250
      TEMPO 1622/1702 VRB10G20KT 4SM TSRA BKN030CB
     FM170200 32003KT P6SM BKN035
     FM170500 01003KT 6SM BR BKN035
     FM170800 02003KT 4SM BR BKN016
     FM171600 03005KT P6SM BKN024=



000
FTUS42 KGSP 162000 AAA
TAFGSP
TAF AMD
KGSP 162039Z 1621/1718 20007KT P6SM VCTS BKN040CB
      TEMPO 1621/1624 VRB10G20KT 4SM TSRA BKN030CB
     FM170000 35003KT P6SM VCTS BKN050CB
     FM170300 00000KT 6SM BR SCT045 SCT250
      TEMPO 1710/1713 4SM BR BKN025
     FM171300 02005KT P6SM SCT030 SCT250=



000
FTUS42 KGSP 162000 AAA
TAFAVL
TAF AMD
KAVL 162039Z 1621/1718 34005KT P6SM VCTS BKN035CB
      TEMPO 1621/1624 VRB10G20KT 4SM TSRA BKN025CB
     FM170000 32005KT P6SM SCT035
     FM170300 33003KT 4SM BR BKN012
      TEMPO 1708/1712 1/2SM FG BKN009
     FM171200 33004KT P6SM BKN024
     FM171500 34008KT P6SM SCT250=



000
FTUS42 KGSP 162000 AAA
TAFAVL
TAF AMD
KAVL 162039Z 1621/1718 34005KT P6SM VCTS BKN035CB
      TEMPO 1621/1624 VRB10G20KT 4SM TSRA BKN025CB
     FM170000 32005KT P6SM SCT035
     FM170300 33003KT 4SM BR BKN012
      TEMPO 1708/1712 1/2SM FG BKN009
     FM171200 33004KT P6SM BKN024
     FM171500 34008KT P6SM SCT250=



000
FTUS42 KGSP 161700
TAFCLT
TAF
KCLT 161723Z 1618/1718 32004KT P6SM BKN045
      TEMPO 1622/1702 VRB10G20KT 4SM TSRA BKN030CB
     FM170300 34003KT P6SM BKN040 PROB30 1703/1705 4SM TSRA BKN030CB
     FM170500 01003KT 6SM BR BKN035
     FM170800 02003KT 4SM BR BKN016
     FM171600 03005KT P6SM BKN024=



000
FTUS42 KGSP 161700
TAFAVL
TAF
KAVL 161723Z 1618/1718 34005KT P6SM VCTS BKN035CB
      TEMPO 1619/1623 VRB10G20KT 4SM TSRA BKN025CB
     FM162300 32005KT P6SM SCT035
     FM170300 33003KT 4SM BR BKN012
      TEMPO 1708/1712 1/2SM FG BKN009
     FM171200 33004KT P6SM BKN024
     FM171500 34008KT P6SM SCT250=



000
FTUS42 KGSP 161700
TAFCLT
TAF
KCLT 161723Z 1618/1718 32004KT P6SM BKN045
      TEMPO 1622/1702 VRB10G20KT 4SM TSRA BKN030CB
     FM170300 34003KT P6SM BKN040 PROB30 1703/1705 4SM TSRA BKN030CB
     FM170500 01003KT 6SM BR BKN035
     FM170800 02003KT 4SM BR BKN016
     FM171600 03005KT P6SM BKN024=



000
FTUS42 KGSP 161700
TAFGSP
TAF
KGSP 161723Z 1618/1718 31004KT P6SM VCTS BKN040CB
      TEMPO 1619/1623 VRB10G20KT 4SM TSRA BKN030CB
     FM162300 35003KT P6SM VCTS BKN050CB
     FM170300 00000KT 6SM BR SCT045 SCT250
      TEMPO 1710/1713 4SM BR BKN025
     FM171300 02005KT P6SM SCT030 SCT250=



000
FTUS42 KGSP 161700
TAFAVL
TAF
KAVL 161723Z 1618/1718 34005KT P6SM VCTS BKN035CB
      TEMPO 1619/1623 VRB10G20KT 4SM TSRA BKN025CB
     FM162300 32005KT P6SM SCT035
     FM170300 33003KT 4SM BR BKN012
      TEMPO 1708/1712 1/2SM FG BKN009
     FM171200 33004KT P6SM BKN024
     FM171500 34008KT P6SM SCT250=



000
FTUS42 KGSP 161500 AAA
TAFCLT
TAF AMD
KCLT 161519Z 1615/1712 28004KT P6SM FEW035
     FM162000 33004KT P6SM SCT040
      TEMPO 1620/1624 VRB10G20KT 4SM TSRA BKN040CB
     FM170300 04003KT P6SM BKN050=



000
FTUS42 KGSP 161500 AAA
TAFCLT
TAF AMD
KCLT 161519Z 1615/1712 28004KT P6SM FEW035
     FM162000 33004KT P6SM SCT040
      TEMPO 1620/1624 VRB10G20KT 4SM TSRA BKN040CB
     FM170300 04003KT P6SM BKN050=



000
FTUS42 KGSP 161400 AAA
TAFGSP
TAF AMD
KGSP 161408Z 1614/1712 29004KT P6SM SCT040
     FM162000 25003KT P6SM VCTS BKN040CB PROB30 1623/1703 4SM TSRA
      BKN030CB
     FM170400 00000KT P6SM SCT250=



000
FTUS42 KGSP 161400 AAA
TAFAVL
TAF AMD
KAVL 161407Z 1614/1712 33005KT P6SM BKN035
      TEMPO 1614/1615 BKN009
     FM161900 32005KT P6SM VCTS BKN035CB PROB30 1623/1703 4SM TSRA
      BKN025CB
     FM170500 33003KT 5SM BR BKN013=



000
FTUS42 KGSP 161400 AAA
TAFAVL
TAF AMD
KAVL 161407Z 1614/1712 33005KT P6SM BKN035
      TEMPO 1614/1615 BKN009
     FM161900 32005KT P6SM VCTS BKN035CB PROB30 1623/1703 4SM TSRA
      BKN025CB
     FM170500 33003KT 5SM BR BKN013=



000
FTUS42 KGSP 161300 AAB
TAFCLT
TAF AMD
KCLT 161303Z 1613/1712 28003KT P6SM SCT015
      TEMPO 1613/1614 BKN015
     FM161430 32003KT P6SM SCT035
     FM162000 00000KT P6SM SCT050 PROB30 1622/1703 4SM TSRA BKN040CB
     FM170300 04003KT P6SM BKN050=



000
FTUS42 KGSP 161300 AAB
TAFCLT
TAF AMD
KCLT 161303Z 1613/1712 28003KT P6SM SCT015
      TEMPO 1613/1614 BKN015
     FM161430 32003KT P6SM SCT035
     FM162000 00000KT P6SM SCT050 PROB30 1622/1703 4SM TSRA BKN040CB
     FM170300 04003KT P6SM BKN050=



000
FTUS42 KGSP 161200 AAA
TAFCLT
TAF AMD
KCLT 161216Z 1612/1712 28003KT P6SM OVC012
     FM161430 32003KT P6SM SCT025 BKN035
     FM162000 00000KT P6SM SCT050 PROB30 1621/1703 4SM TSRA BKN040CB
     FM170300 04003KT P6SM BKN050=



000
FTUS42 KGSP 161100 CCA
TAFAVL
TAF COR
KAVL 161158Z 1612/1712 33005KT P6SM SCT015 BKN150
     FM161400 35008KT P6SM SCT035
     FM161900 32005KT P6SM VCTS BKN035CB PROB30 1621/1703 4SM TSRA
      BKN025CB
     FM170500 33003KT 5SM BR BKN013=



000
FTUS42 KGSP 161100 CCA
TAFAVL
TAF COR
KAVL 161158Z 1612/1712 33005KT P6SM SCT015 BKN150
     FM161400 35008KT P6SM SCT035
     FM161900 32005KT P6SM VCTS BKN035CB PROB30 1621/1703 4SM TSRA
      BKN025CB
     FM170500 33003KT 5SM BR BKN013=



000
FTUS42 KGSP 161100 CCA
TAFCLT
TAF COR
KCLT 161156Z 1612/1712 28003KT P6SM BKN009 OVC013
      TEMPO 1612/1615 6SM BR SCT009 BKN018
     FM161500 32003KT P6SM SCT025 BKN035
     FM162000 00000KT P6SM SCT050 PROB30 1621/1703 4SM TSRA BKN040CB
     FM170300 04003KT P6SM BKN050=



000
FTUS42 KGSP 161100 CCA
TAFCLT
TAF COR
KCLT 161156Z 1612/1712 28003KT P6SM BKN009 OVC013
      TEMPO 1612/1615 6SM BR SCT009 BKN018
     FM161500 32003KT P6SM SCT025 BKN035
     FM162000 00000KT P6SM SCT050 PROB30 1621/1703 4SM TSRA BKN040CB
     FM170300 04003KT P6SM BKN050=



000
FTUS42 KGSP 161100 CCA
TAFGSP
TAF COR
KGSP 161154Z 1612/1712 28003KT 4SM BR OVC014
     FM161400 29004KT 6SM BR BKN025
     FM161500 30004KT P6SM SCT030
     FM162000 25003KT P6SM VCTS BKN040CB PROB30 1621/1703 4SM TSRA
      BKN030CB
     FM170400 00000KT P6SM SCT250=



000
FTUS42 KGSP 161100
TAFAVL
TAF
KAVL 161127Z 1612/1712 33003KT P6SM SCT005 BKN011
      TEMPO 1612/1613 BKN005 BKN011
     FM161400 35008KT P6SM SCT035
     FM161900 32005KT P6SM VCTS BKN035CB PROB30 1621/1703 4SM TSRA
      BKN025CB
     FM170500 33003KT 5SM BR BKN013=



000
FTUS42 KGSP 161100
TAFAVL
TAF
KAVL 161127Z 1612/1712 33003KT P6SM SCT005 BKN011
      TEMPO 1612/1613 BKN005 BKN011
     FM161400 35008KT P6SM SCT035
     FM161900 32005KT P6SM VCTS BKN035CB PROB30 1621/1703 4SM TSRA
      BKN025CB
     FM170500 33003KT 5SM BR BKN013=



000
FTUS42 KGSP 161100
TAFCLT
TAF
KCLT 161127Z 1612/1712 28003KT 6SM BR OVC005
     FM161400 32003KT P6SM SCT022
      TEMPO 1614/1615 BKN006 BKN023
     FM162000 00000KT P6SM SCT050 PROB30 1621/1703 4SM TSRA BKN040CB
     FM170300 04003KT P6SM BKN050=



000
FTUS42 KGSP 161100
TAFCLT
TAF
KCLT 161127Z 1612/1712 28003KT 6SM BR OVC005
     FM161400 32003KT P6SM SCT022
      TEMPO 1614/1615 BKN006 BKN023
     FM162000 00000KT P6SM SCT050 PROB30 1621/1703 4SM TSRA BKN040CB
     FM170300 04003KT P6SM BKN050=



000
FTUS42 KGSP 161100
TAFGSP
TAF
KGSP 161127Z 1612/1712 25003KT 4SM BR BKN007
     FM161400 29004KT 6SM BR BKN019
     FM161500 30004KT P6SM SCT030
     FM162000 25003KT P6SM VCTS BKN040CB PROB30 1621/1703 4SM TSRA
      BKN030CB
     FM170400 00000KT P6SM SCT250=



000
FTUS42 KGSP 160900 AAA
TAFCLT
TAF AMD
KCLT 160905Z 1609/1706 00000KT 5SM BR OVC005
      TEMPO 1610/1613 3SM BR BKN004 OVC007
     FM161500 32003KT P6SM SCT035
     FM162000 00000KT P6SM SCT050 PROB30 1621/1703 4SM SHRA BKN040
     FM170300 04003KT P6SM BKN050=



000
FTUS42 KGSP 160900 AAA
TAFCLT
TAF AMD
KCLT 160905Z 1609/1706 00000KT 5SM BR OVC005
      TEMPO 1610/1613 3SM BR BKN004 OVC007
     FM161500 32003KT P6SM SCT035
     FM162000 00000KT P6SM SCT050 PROB30 1621/1703 4SM SHRA BKN040
     FM170300 04003KT P6SM BKN050=



000
FTUS42 KGSP 160500
TAFCLT
TAF
KCLT 160540Z 1606/1706 00000KT 6SM BR FEW007 OVC012
      TEMPO 1606/1608 5SM BR BKN007 OVC012
     FM160800 00000KT 5SM BR OVC005
     FM161500 32003KT P6SM SCT035
     FM162000 00000KT P6SM SCT050 PROB30 1621/1703 4SM SHRA BKN040
     FM170300 04003KT P6SM BKN050=



000
FTUS42 KGSP 160500
TAFAVL
TAF
KAVL 160540Z 1606/1706 19003KT P6SM SCT006 BKN013
      TEMPO 1606/1608 5SM BR BKN006 OVC015
     FM160800 35003KT 5SM BR OVC005
     FM161300 35006KT P6SM BKN007
     FM161500 35008KT P6SM SCT027
     FM161700 33007KT P6SM BKN040 PROB30 1619/1624 4SM TSRA BKN030CB
     FM170200 00000KT P6SM BKN019=



000
FTUS42 KGSP 160500
TAFGSP
TAF
KGSP 160540Z 1606/1706 00000KT 4SM BR VCSH SCT004 SCT007 OVC014
      TEMPO 1606/1608 3SM -RA BKN004 BKN007 OVC012
     FM160800 22003KT 3SM BR OVC004
     FM161000 23003KT 3SM BR OVC010
      TEMPO 1610/1612 BKN006 OVC010
     FM161300 26004KT P6SM BKN019
     FM161500 30004KT P6SM SCT030 PROB30 1620/1702 4SM TSRA
      BKN030CB=



000
FTUS42 KGSP 160300 AAA
TAFGSP
TAF AMD
KGSP 160359Z 1604/1624 15003KT 6SM BR SCT003 OVC015
      TEMPO 1604/1607 5SM BR OVC003
     FM160700 21003KT 6SM BR SCT003 BKN009
     FM161100 26003KT 4SM BR BKN005
     FM161300 33003KT P6SM SCT024
     FM161800 VRB03KT P6SM BKN050 PROB30 1619/1624 4SM TSRA
      BKN040CB=



000
FTUS42 KGSP 152300 RRA
TAFAVL
TAF
KAVL 152341Z 1600/1624 16003KT 6SM BR VCSH BKN009
     FM160300 00000KT 2SM BR OVC007
     FM160800 31003KT 1/2SM FG OVC003
     FM161400 33005KT 4SM BR SCT009
     FM161500 33006KT P6SM SCT045 PROB30 1617/1623 4SM TSRA
      BKN025CB=



000
FTUS42 KGSP 152300 RRA
TAFAVL
TAF
KAVL 152341Z 1600/1624 16003KT 6SM BR VCSH BKN009
     FM160300 00000KT 2SM BR OVC007
     FM160800 31003KT 1/2SM FG OVC003
     FM161400 33005KT 4SM BR SCT009
     FM161500 33006KT P6SM SCT045 PROB30 1617/1623 4SM TSRA
      BKN025CB=



000
FTUS42 KGSP 152300 RRA
TAFCLT
TAF
KCLT 152341Z 1600/1624 18003KT P6SM BKN025 OVC040
      TEMPO 1601/1603 6SM -SHRA BR OVC017
     FM160600 23003KT 5SM BR BKN015
     FM160900 24003KT 5SM BR BKN008
     FM161300 31003KT P6SM BKN015
     FM161500 33003KT P6SM SCT050 PROB30 1622/1623 4SM TSRA
      BKN040CB=



000
FTUS42 KGSP 152300 RRA
TAFCLT
TAF
KCLT 152341Z 1600/1624 18003KT P6SM BKN025 OVC040
      TEMPO 1601/1603 6SM -SHRA BR OVC017
     FM160600 23003KT 5SM BR BKN015
     FM160900 24003KT 5SM BR BKN008
     FM161300 31003KT P6SM BKN015
     FM161500 33003KT P6SM SCT050 PROB30 1622/1623 4SM TSRA
      BKN040CB=



000
FTUS42 KGSP 152300 RRA
TAFGSP
TAF
KGSP 152341Z 1600/1624 15003KT P6SM SCT016 BKN025
      TEMPO 1600/1602 6SM -SHRA BR OVC015
     FM160500 21003KT 6SM BR BKN009
     FM161100 26003KT 4SM BR BKN005
     FM161300 33003KT P6SM SCT024
     FM161800 VRB03KT P6SM BKN050 PROB30 1619/1624 4SM TSRA
      BKN040CB=



000
FTUS42 KGSP 152100 AAA
TAFAVL
TAF AMD
KAVL 152113Z 1521/1618 15009KT P6SM VCSH SCT028 OVC035
      TEMPO 1521/1524 SHRA OVC025
     FM160300 VRB03KT P6SM BKN025
     FM160600 31003KT 3SM BR BKN012
     FM161100 32004KT 2SM BR BKN008
     FM161400 33007KT P6SM BKN020=



000
FTUS42 KGSP 152100 AAB
TAFCLT
TAF AMD
KCLT 152113Z 1521/1618 00000KT P6SM FEW023 OVC029
     FM152300 17003KT P6SM SCT025 BKN035
     FM160300 21005KT P6SM SCT030 BKN120
     FM160700 22004KT 6SM BR BKN015
     FM161500 34004KT P6SM BKN035=



000
FTUS42 KGSP 152100 AAB
TAFGSP
TAF AMD
KGSP 152113Z 1521/1618 17005KT P6SM OVC019
     FM152300 17003KT P6SM OVC025
     FM160200 23004KT P6SM SCT025 BKN120
     FM160800 24004KT P6SM BKN020
     FM161500 33003KT P6SM BKN035=



000
FTUS42 KGSP 152100 AAA
TAFAVL
TAF AMD
KAVL 152113Z 1521/1618 15009KT P6SM VCSH SCT028 OVC035
      TEMPO 1521/1524 SHRA OVC025
     FM160300 VRB03KT P6SM BKN025
     FM160600 31003KT 3SM BR BKN012
     FM161100 32004KT 2SM BR BKN008
     FM161400 33007KT P6SM BKN020=



000
FTUS42 KGSP 152000 AAA
TAFCLT
TAF AMD
KCLT 152009Z 1520/1618 00000KT P6SM BKN023 OVC030
      TEMPO 1523/1603 -SHRA SCT025 BKN035
     FM160300 21005KT P6SM SCT030 BKN120
     FM160700 22004KT 6SM BR BKN015
     FM161500 34004KT P6SM BKN035=



000
FTUS42 KGSP 152000 AAA
TAFCLT
TAF AMD
KCLT 152009Z 1520/1618 00000KT P6SM BKN023 OVC030
      TEMPO 1523/1603 -SHRA SCT025 BKN035
     FM160300 21005KT P6SM SCT030 BKN120
     FM160700 22004KT 6SM BR BKN015
     FM161500 34004KT P6SM BKN035=



000
FTUS42 KGSP 151900 AAA
TAFGSP
TAF AMD
KGSP 151911Z 1519/1618 17005KT P6SM BKN018
     FM152100 19005KT P6SM VCSH BKN025
     FM160300 23004KT P6SM SCT025 BKN120
     FM160800 24004KT P6SM BKN020
     FM161500 33003KT P6SM BKN035=



    US Dept of Commerce
    National Oceanic and Atmospheric Administration
    National Weather Service
    1325 East West Highway
    Silver Spring, MD 20910
    Page Author: NWS Internet Services Team
Disclaimer
Information Quality
Credits
Glossary
Privacy Policy
Freedom of Information Act (FOIA)
About Us
Career Opportunities